createdAt,value
2022-10-18T00:01:06.534Z,101795.59
2022-10-18T00:06:10.875Z,101777.06
2022-10-18T00:11:15.642Z,101783.44
2022-10-18T00:16:19.784Z,101792.09
2022-10-18T00:21:24.834Z,101792.09
2022-10-18T00:26:32.256Z,101798.69
2022-10-18T00:31:37.834Z,101805.09
2022-10-18T00:36:41.785Z,101805.25
2022-10-18T00:41:47.057Z,101801.06
2022-10-18T00:46:50.529Z,101805.44
2022-10-18T00:51:58.150Z,101821.59
2022-10-18T00:57:03.606Z,101817.38
2022-10-18T01:02:08.349Z,101821.59
2022-10-18T01:07:27.889Z,101819.94
2022-10-18T01:12:48.748Z,101819.00
2022-10-18T01:18:00.627Z,101822.00
2022-10-18T01:23:07.292Z,101818.03
2022-10-18T01:28:26.910Z,101823.41
2022-10-18T01:33:36.995Z,101807.88
2022-10-18T01:38:40.818Z,101791.34
2022-10-18T01:43:45.393Z,101781.25
2022-10-18T01:48:50.383Z,101783.84
2022-10-18T01:53:54.197Z,101795.06
2022-10-18T01:59:06.662Z,101783.00
2022-10-18T02:04:20.953Z,101782.63
2022-10-18T02:09:31.231Z,101785.66
2022-10-18T02:14:34.924Z,101777.13
2022-10-18T02:19:43.051Z,101773.59
2022-10-18T02:24:50.992Z,101771.53
2022-10-18T02:29:54.753Z,101780.66
2022-10-18T02:35:01.453Z,101767.34
2022-10-18T02:40:06.268Z,101764.94
2022-10-18T02:45:09.905Z,101760.88
2022-10-18T02:50:15.184Z,101765.56
2022-10-18T02:55:18.603Z,101760.03
2022-10-18T03:00:21.987Z,101762.06
2022-10-18T03:05:26.864Z,101762.59
2022-10-18T03:10:30.164Z,101754.38
2022-10-18T03:15:33.468Z,101764.75
2022-10-18T03:20:38.148Z,101767.44
2022-10-18T03:25:44.220Z,101752.72
2022-10-18T03:30:49.690Z,101758.22
2022-10-18T03:35:54.451Z,101765.91
2022-10-18T03:40:57.846Z,101754.00
2022-10-18T03:46:01.489Z,101737.78
2022-10-18T03:51:06.526Z,101730.81
2022-10-18T03:56:09.895Z,101734.91
2022-10-18T04:01:13.499Z,101739.88
2022-10-18T04:06:18.238Z,101740.56
2022-10-18T04:11:21.537Z,101741.88
2022-10-18T04:16:24.945Z,101744.25
2022-10-18T04:21:29.741Z,101750.63
2022-10-18T04:26:33.094Z,101755.88
2022-10-18T04:31:36.409Z,101749.66
2022-10-18T04:36:41.289Z,101741.75
2022-10-18T04:41:44.792Z,101749.38
2022-10-18T04:46:48.266Z,101739.88
2022-10-18T04:51:53.094Z,101738.78
2022-10-18T04:56:56.624Z,101743.44
2022-10-18T05:02:00.122Z,101744.72
2022-10-18T05:07:06.503Z,101759.25
2022-10-18T05:12:09.918Z,101753.59
2022-10-18T05:17:13.337Z,101758.28
2022-10-18T05:22:18.147Z,101765.22
2022-10-18T05:27:21.537Z,101765.50
2022-10-18T05:32:24.973Z,101775.38
2022-10-18T05:37:29.850Z,101779.34
2022-10-18T05:42:33.519Z,101775.94
2022-10-18T05:47:37.044Z,101780.75
2022-10-18T05:52:41.826Z,101777.66
2022-10-18T05:57:45.227Z,101777.66
2022-10-18T06:02:49.128Z,101785.56
2022-10-18T06:07:53.983Z,101790.94
2022-10-18T06:12:57.349Z,101790.25
2022-10-18T06:18:00.704Z,101802.81
2022-10-18T06:23:05.543Z,101809.59
2022-10-18T06:28:11.461Z,101817.81
2022-10-18T06:33:15.756Z,101815.25
2022-10-18T06:38:20.628Z,101815.81
2022-10-18T06:43:24.718Z,101816.69
2022-10-18T06:48:28.184Z,101809.00
2022-10-18T06:53:34.186Z,101818.66
2022-10-18T06:58:38.047Z,101820.59
2022-10-18T07:03:41.450Z,101811.84
2022-10-18T07:08:47.283Z,101823.16
2022-10-18T07:13:51.102Z,101821.31
2022-10-18T07:18:54.520Z,101824.03
2022-10-18T07:23:59.346Z,101821.72
2022-10-18T07:29:06.374Z,101823.97
2022-10-18T07:34:13.031Z,101822.28
2022-10-18T07:39:18.013Z,101826.22
2022-10-18T07:44:21.438Z,101818.97
2022-10-18T07:49:25.098Z,101817.16
2022-10-18T07:54:30.292Z,101821.31
2022-10-18T07:59:33.770Z,101810.00
2022-10-18T08:04:37.193Z,101813.19
2022-10-18T08:09:42.038Z,101821.53
2022-10-18T08:14:45.463Z,101816.25
2022-10-18T08:19:58.538Z,101821.84
2022-10-18T08:25:13.968Z,101822.50
2022-10-18T08:30:17.645Z,101816.22
2022-10-18T08:35:21.222Z,101819.47
2022-10-18T08:40:27.486Z,101827.38
2022-10-18T08:45:42.503Z,101822.81
2022-10-18T08:50:47.089Z,101827.22
2022-10-18T08:55:55.868Z,101830.69
2022-10-18T09:01:04.565Z,101835.81
2022-10-18T09:06:18.672Z,101845.78
2022-10-18T09:11:37.084Z,101848.94
2022-10-18T09:16:45.839Z,101858.72
2022-10-18T09:21:53.844Z,101862.34
2022-10-18T09:27:05.186Z,101876.88
2022-10-18T09:32:26.179Z,101868.91
2022-10-18T09:37:31.698Z,101882.59
2022-10-18T09:42:39.009Z,101868.66
2022-10-18T09:47:47.198Z,101887.25
2022-10-18T09:52:54.013Z,101881.19
2022-10-18T09:58:01.889Z,101883.09
2022-10-18T10:03:10.968Z,101887.06
2022-10-18T10:08:14.450Z,101881.31
2022-10-18T10:13:23.077Z,101868.22
2022-10-18T10:18:28.227Z,101880.03
2022-10-18T10:23:33.797Z,101883.31
2022-10-18T10:28:46.220Z,101887.25
2022-10-18T10:33:59.678Z,101887.13
2022-10-18T10:39:05.228Z,101890.88
2022-10-18T10:44:18.090Z,101890.06
2022-10-18T10:54:51.174Z,101874.63
2022-10-18T10:59:58.276Z,101879.22
2022-10-18T11:05:20.733Z,101869.91
2022-10-18T11:10:25.804Z,101877.50
2022-10-18T11:15:32.982Z,101865.84
2022-10-18T11:20:42.082Z,101876.97
2022-10-18T11:25:54.530Z,101863.56
2022-10-18T11:31:11.071Z,101865.94
2022-10-18T11:36:18.756Z,101871.41
2022-10-18T11:41:31.449Z,101847.38
2022-10-18T11:46:53.822Z,101852.00
2022-10-18T11:52:08.802Z,101831.03
2022-10-18T11:57:22.475Z,101838.38
2022-10-18T12:02:47.933Z,101841.06
2022-10-18T12:07:55.180Z,101827.69
2022-10-18T12:13:02.050Z,101839.00
2022-10-18T12:18:11.705Z,101845.06
2022-10-18T12:23:17.489Z,101848.84
2022-10-18T12:28:28.443Z,101826.06
2022-10-18T12:33:38.226Z,101836.09
2022-10-18T12:38:43.651Z,101825.34
2022-10-18T12:43:53.200Z,101819.84
2022-10-18T12:49:04.730Z,101825.69
2022-10-18T12:54:12.683Z,101819.31
2022-10-18T12:59:43.867Z,101829.75
2022-10-18T13:04:48.706Z,101826.47
2022-10-18T13:10:40.781Z,101830.44
2022-10-18T13:15:45.540Z,101826.09
2022-10-18T13:20:57.697Z,101829.59
2022-10-18T13:26:05.656Z,101826.38
2022-10-18T13:31:16.170Z,101835.78
2022-10-18T13:36:25.976Z,101840.63
2022-10-18T13:41:34.322Z,101838.44
2022-10-18T13:47:35.406Z,101854.00
2022-10-18T13:52:59.055Z,101848.22
2022-10-18T13:58:09.850Z,101848.66
2022-10-18T14:03:56.073Z,101857.50
2022-10-18T14:09:09.573Z,101868.38
2022-10-18T14:14:29.811Z,101870.97
2022-10-18T14:19:38.846Z,101866.81
2022-10-18T14:24:46.111Z,101866.34
2022-10-18T14:29:50.196Z,101876.75
2022-10-18T14:34:55.754Z,101875.44
2022-10-18T14:40:07.003Z,101879.19
2022-10-18T14:45:19.086Z,101874.94
2022-10-18T14:50:23.693Z,101879.19
2022-10-18T14:55:28.942Z,101886.13
2022-10-18T15:00:38.226Z,101885.66
2022-10-18T15:05:53.147Z,101893.78
2022-10-18T15:10:58.235Z,101890.88
2022-10-18T15:16:01.689Z,101887.16
2022-10-18T15:21:21.960Z,101884.66
